sensor_id;sensor_type;location;lat;lon;timestamp;temperature;humidity
25718;DHT22;13574;52.040;5.692;2022-12-07T00:01:08;8.80;99.90
25718;DHT22;13574;52.040;5.692;2022-12-07T00:03:35;8.70;99.90
25718;DHT22;13574;52.040;5.692;2022-12-07T00:06:02;8.80;99.90
25718;DHT22;13574;52.040;5.692;2022-12-07T00:08:27;8.70;99.90
25718;DHT22;13574;52.040;5.692;2022-12-07T00:10:53;8.60;99.90
25718;DHT22;13574;52.040;5.692;2022-12-07T00:13:19;8.60;99.90
25718;DHT22;13574;52.040;5.692;2022-12-07T00:15:44;8.60;99.90
25718;DHT22;13574;52.040;5.692;2022-12-07T00:18:10;8.60;99.90
25718;DHT22;13574;52.040;5.692;2022-12-07T00:20:36;8.60;99.90
25718;DHT22;13574;52.040;5.692;2022-12-07T00:23:02;8.60;99.90
25718;DHT22;13574;52.040;5.692;2022-12-07T00:25:27;8.50;99.90
25718;DHT22;13574;52.040;5.692;2022-12-07T00:27:53;8.60;99.90
25718;DHT22;13574;52.040;5.692;2022-12-07T00:30:22;8.60;99.90
25718;DHT22;13574;52.040;5.692;2022-12-07T00:32:48;8.50;99.90
25718;DHT22;13574;52.040;5.692;2022-12-07T00:35:13;8.50;99.90
25718;DHT22;13574;52.040;5.692;2022-12-07T00:37:39;8.50;99.90
25718;DHT22;13574;52.040;5.692;2022-12-07T00:40:05;8.50;99.90
25718;DHT22;13574;52.040;5.692;2022-12-07T00:42:31;8.40;99.90
25718;DHT22;13574;52.040;5.692;2022-12-07T00:44:57;8.40;99.90
25718;DHT22;13574;52.040;5.692;2022-12-07T00:47:23;8.30;99.90
25718;DHT22;13574;52.040;5.692;2022-12-07T00:49:48;8.30;99.90
25718;DHT22;13574;52.040;5.692;2022-12-07T00:52:14;8.30;99.90
25718;DHT22;13574;52.040;5.692;2022-12-07T00:54:40;8.30;99.90
25718;DHT22;13574;52.040;5.692;2022-12-07T00:57:06;8.30;99.90
25718;DHT22;13574;52.040;5.692;2022-12-07T00:59:32;8.30;99.90
25718;DHT22;13574;52.040;5.692;2022-12-07T01:01:57;8.30;99.90
25718;DHT22;13574;52.040;5.692;2022-12-07T01:04:23;8.30;99.90
25718;DHT22;13574;52.040;5.692;2022-12-07T01:06:48;8.30;99.90
25718;DHT22;13574;52.040;5.692;2022-12-07T01:09:14;8.10;99.90
25718;DHT22;13574;52.040;5.692;2022-12-07T01:11:40;8.30;99.90
25718;DHT22;13574;52.040;5.692;2022-12-07T01:14:05;8.30;99.90
25718;DHT22;13574;52.040;5.692;2022-12-07T01:16:32;8.30;99.90
25718;DHT22;13574;52.040;5.692;2022-12-07T01:18:58;8.30;99.90
25718;DHT22;13574;52.040;5.692;2022-12-07T01:21:26;8.20;99.90
25718;DHT22;13574;52.040;5.692;2022-12-07T01:23:53;8.20;99.90
25718;DHT22;13574;52.040;5.692;2022-12-07T01:26:22;8.10;99.90
25718;DHT22;13574;52.040;5.692;2022-12-07T01:28:48;8.20;99.90
25718;DHT22;13574;52.040;5.692;2022-12-07T01:31:16;8.20;99.90
25718;DHT22;13574;52.040;5.692;2022-12-07T01:33:44;8.20;99.90
25718;DHT22;13574;52.040;5.692;2022-12-07T01:36:21;8.20;99.90
25718;DHT22;13574;52.040;5.692;2022-12-07T01:38:48;8.30;99.90
25718;DHT22;13574;52.040;5.692;2022-12-07T01:41:17;8.30;99.90
25718;DHT22;13574;52.040;5.692;2022-12-07T01:47:09;8.20;99.90
25718;DHT22;13574;52.040;5.692;2022-12-07T01:49:40;8.10;99.90
25718;DHT22;13574;52.040;5.692;2022-12-07T01:52:25;8.10;99.90
25718;DHT22;13574;52.040;5.692;2022-12-07T01:54:59;8.10;99.90
25718;DHT22;13574;52.040;5.692;2022-12-07T01:57:27;8.00;99.90
25718;DHT22;13574;52.040;5.692;2022-12-07T01:59:53;8.00;99.90
25718;DHT22;13574;52.040;5.692;2022-12-07T02:02:26;8.00;99.90
25718;DHT22;13574;52.040;5.692;2022-12-07T02:04:53;8.10;99.90
25718;DHT22;13574;52.040;5.692;2022-12-07T02:07:21;8.00;99.90
25718;DHT22;13574;52.040;5.692;2022-12-07T02:09:48;8.10;99.90
25718;DHT22;13574;52.040;5.692;2022-12-07T02:12:13;8.10;99.90
25718;DHT22;13574;52.040;5.692;2022-12-07T02:14:39;8.10;99.90
25718;DHT22;13574;52.040;5.692;2022-12-07T02:17:08;8.10;99.90
25718;DHT22;13574;52.040;5.692;2022-12-07T02:27:46;8.00;99.90
25718;DHT22;13574;52.040;5.692;2022-12-07T02:30:17;8.00;99.90
25718;DHT22;13574;52.040;5.692;2022-12-07T02:35:24;8.00;99.90
25718;DHT22;13574;52.040;5.692;2022-12-07T02:40:35;8.10;99.90
25718;DHT22;13574;52.040;5.692;2022-12-07T02:43:25;8.00;99.90
25718;DHT22;13574;52.040;5.692;2022-12-07T02:45:53;7.90;99.90
25718;DHT22;13574;52.040;5.692;2022-12-07T02:48:21;8.00;99.90
25718;DHT22;13574;52.040;5.692;2022-12-07T02:50:52;8.00;99.90
25718;DHT22;13574;52.040;5.692;2022-12-07T02:53:40;8.00;99.90
25718;DHT22;13574;52.040;5.692;2022-12-07T03:04:02;8.10;99.90
25718;DHT22;13574;52.040;5.692;2022-12-07T03:06:37;8.30;99.90
25718;DHT22;13574;52.040;5.692;2022-12-07T03:09:33;8.20;99.90
25718;DHT22;13574;52.040;5.692;2022-12-07T03:12:09;8.30;99.90
25718;DHT22;13574;52.040;5.692;2022-12-07T03:14:40;8.20;99.90
25718;DHT22;13574;52.040;5.692;2022-12-07T03:17:13;8.20;99.90
25718;DHT22;13574;52.040;5.692;2022-12-07T03:19:42;8.30;99.90
25718;DHT22;13574;52.040;5.692;2022-12-07T03:22:13;8.30;99.90
25718;DHT22;13574;52.040;5.692;2022-12-07T03:24:46;8.30;99.90
25718;DHT22;13574;52.040;5.692;2022-12-07T03:27:20;8.40;99.90
25718;DHT22;13574;52.040;5.692;2022-12-07T03:30:22;8.40;99.90
25718;DHT22;13574;52.040;5.692;2022-12-07T03:33:10;8.30;99.90
25718;DHT22;13574;52.040;5.692;2022-12-07T03:35:43;8.30;99.90
25718;DHT22;13574;52.040;5.692;2022-12-07T03:38:15;8.30;99.90
25718;DHT22;13574;52.040;5.692;2022-12-07T03:43:18;8.40;99.90
25718;DHT22;13574;52.040;5.692;2022-12-07T03:46:17;8.50;99.90
25718;DHT22;13574;52.040;5.692;2022-12-07T03:48:42;8.50;99.90
25718;DHT22;13574;52.040;5.692;2022-12-07T03:51:28;8.50;99.90
25718;DHT22;13574;52.040;5.692;2022-12-07T03:56:35;8.50;99.90
25718;DHT22;13574;52.040;5.692;2022-12-07T03:59:00;8.50;99.90
25718;DHT22;13574;52.040;5.692;2022-12-07T04:01:27;8.50;99.90
25718;DHT22;13574;52.040;5.692;2022-12-07T04:03:53;8.60;99.90
25718;DHT22;13574;52.040;5.692;2022-12-07T04:06:19;8.60;99.90
25718;DHT22;13574;52.040;5.692;2022-12-07T04:08:44;8.70;99.90
25718;DHT22;13574;52.040;5.692;2022-12-07T04:11:10;8.50;99.90
25718;DHT22;13574;52.040;5.692;2022-12-07T04:13:35;8.50;99.90
25718;DHT22;13574;52.040;5.692;2022-12-07T04:16:21;8.50;99.90
25718;DHT22;13574;52.040;5.692;2022-12-07T04:18:47;8.40;99.90
25718;DHT22;13574;52.040;5.692;2022-12-07T04:21:12;8.40;99.90
25718;DHT22;13574;52.040;5.692;2022-12-07T04:23:38;8.40;99.90
25718;DHT22;13574;52.040;5.692;2022-12-07T04:26:04;8.50;99.90
25718;DHT22;13574;52.040;5.692;2022-12-07T04:28:29;8.50;99.90
25718;DHT22;13574;52.040;5.692;2022-12-07T04:30:55;8.50;99.90
25718;DHT22;13574;52.040;5.692;2022-12-07T04:33:20;8.40;99.90
25718;DHT22;13574;52.040;5.692;2022-12-07T04:35:46;8.40;99.90
25718;DHT22;13574;52.040;5.692;2022-12-07T04:38:11;8.40;99.90
25718;DHT22;13574;52.040;5.692;2022-12-07T04:40:37;8.50;99.90
25718;DHT22;13574;52.040;5.692;2022-12-07T04:43:03;8.60;99.90
25718;DHT22;13574;52.040;5.692;2022-12-07T04:45:30;8.60;99.90
25718;DHT22;13574;52.040;5.692;2022-12-07T04:47:55;8.60;99.90
25718;DHT22;13574;52.040;5.692;2022-12-07T04:50:21;8.60;99.90
25718;DHT22;13574;52.040;5.692;2022-12-07T04:52:47;8.70;99.90
25718;DHT22;13574;52.040;5.692;2022-12-07T04:55:12;8.70;99.90
25718;DHT22;13574;52.040;5.692;2022-12-07T04:57:38;8.70;99.90
25718;DHT22;13574;52.040;5.692;2022-12-07T05:00:04;8.50;99.90
25718;DHT22;13574;52.040;5.692;2022-12-07T05:02:30;8.50;99.90
25718;DHT22;13574;52.040;5.692;2022-12-07T05:04:55;8.50;99.90
25718;DHT22;13574;52.040;5.692;2022-12-07T05:07:21;8.50;99.90
25718;DHT22;13574;52.040;5.692;2022-12-07T05:09:46;8.40;99.90
25718;DHT22;13574;52.040;5.692;2022-12-07T05:12:12;8.40;99.90
25718;DHT22;13574;52.040;5.692;2022-12-07T05:14:38;8.40;99.90
25718;DHT22;13574;52.040;5.692;2022-12-07T05:17:03;8.30;99.90
25718;DHT22;13574;52.040;5.692;2022-12-07T05:19:29;8.40;99.90
25718;DHT22;13574;52.040;5.692;2022-12-07T05:21:55;8.40;99.90
25718;DHT22;13574;52.040;5.692;2022-12-07T05:24:20;8.40;99.90
25718;DHT22;13574;52.040;5.692;2022-12-07T05:26:46;8.50;99.90
25718;DHT22;13574;52.040;5.692;2022-12-07T05:29:14;8.40;99.90
25718;DHT22;13574;52.040;5.692;2022-12-07T05:31:40;8.50;99.90
25718;DHT22;13574;52.040;5.692;2022-12-07T05:34:06;8.40;99.90
25718;DHT22;13574;52.040;5.692;2022-12-07T05:36:32;8.30;99.90
25718;DHT22;13574;52.040;5.692;2022-12-07T05:38:58;8.40;99.90
25718;DHT22;13574;52.040;5.692;2022-12-07T05:41:24;8.40;99.90
25718;DHT22;13574;52.040;5.692;2022-12-07T05:44:08;8.30;99.90
25718;DHT22;13574;52.040;5.692;2022-12-07T05:46:34;8.30;99.90
25718;DHT22;13574;52.040;5.692;2022-12-07T05:49:00;8.10;99.90
25718;DHT22;13574;52.040;5.692;2022-12-07T05:51:26;8.10;99.90
25718;DHT22;13574;52.040;5.692;2022-12-07T05:53:52;8.10;99.90
25718;DHT22;13574;52.040;5.692;2022-12-07T05:56:18;8.10;99.90
25718;DHT22;13574;52.040;5.692;2022-12-07T05:58:43;8.10;99.90
25718;DHT22;13574;52.040;5.692;2022-12-07T06:01:27;8.10;99.90
25718;DHT22;13574;52.040;5.692;2022-12-07T06:03:53;8.10;99.90
25718;DHT22;13574;52.040;5.692;2022-12-07T06:06:19;8.10;99.90
25718;DHT22;13574;52.040;5.692;2022-12-07T06:08:45;8.10;99.90
25718;DHT22;13574;52.040;5.692;2022-12-07T06:11:10;8.10;99.90
25718;DHT22;13574;52.040;5.692;2022-12-07T06:13:55;8.00;99.90
25718;DHT22;13574;52.040;5.692;2022-12-07T06:16:21;7.90;99.90
25718;DHT22;13574;52.040;5.692;2022-12-07T06:18:46;7.90;99.90
25718;DHT22;13574;52.040;5.692;2022-12-07T06:21:12;7.90;99.90
25718;DHT22;13574;52.040;5.692;2022-12-07T06:23:37;7.90;99.90
25718;DHT22;13574;52.040;5.692;2022-12-07T06:26:03;7.90;99.90
25718;DHT22;13574;52.040;5.692;2022-12-07T06:28:29;7.90;99.90
25718;DHT22;13574;52.040;5.692;2022-12-07T06:30:58;8.00;99.90
25718;DHT22;13574;52.040;5.692;2022-12-07T06:33:25;8.10;99.90
25718;DHT22;13574;52.040;5.692;2022-12-07T06:35:50;8.10;99.90
25718;DHT22;13574;52.040;5.692;2022-12-07T06:38:16;8.20;99.90
25718;DHT22;13574;52.040;5.692;2022-12-07T06:40:42;8.20;99.90
25718;DHT22;13574;52.040;5.692;2022-12-07T06:43:07;8.20;99.90
25718;DHT22;13574;52.040;5.692;2022-12-07T06:45:33;8.30;99.90
25718;DHT22;13574;52.040;5.692;2022-12-07T06:47:59;8.40;99.90
25718;DHT22;13574;52.040;5.692;2022-12-07T06:50:24;8.30;99.90
25718;DHT22;13574;52.040;5.692;2022-12-07T06:52:51;8.40;99.90
25718;DHT22;13574;52.040;5.692;2022-12-07T06:55:17;8.30;99.90
25718;DHT22;13574;52.040;5.692;2022-12-07T06:57:42;8.20;99.90
25718;DHT22;13574;52.040;5.692;2022-12-07T07:00:08;8.20;99.90
25718;DHT22;13574;52.040;5.692;2022-12-07T07:02:34;8.20;99.90
25718;DHT22;13574;52.040;5.692;2022-12-07T07:05:00;8.10;99.90
25718;DHT22;13574;52.040;5.692;2022-12-07T07:07:25;8.10;99.90
25718;DHT22;13574;52.040;5.692;2022-12-07T07:09:51;8.00;99.90
25718;DHT22;13574;52.040;5.692;2022-12-07T07:12:17;8.00;99.90
25718;DHT22;13574;52.040;5.692;2022-12-07T07:14:42;8.00;99.90
25718;DHT22;13574;52.040;5.692;2022-12-07T07:17:08;7.90;99.90
25718;DHT22;13574;52.040;5.692;2022-12-07T07:19:34;7.90;99.90
25718;DHT22;13574;52.040;5.692;2022-12-07T07:22:00;7.80;99.90
25718;DHT22;13574;52.040;5.692;2022-12-07T07:24:25;7.80;99.90
25718;DHT22;13574;52.040;5.692;2022-12-07T07:26:51;7.80;99.90
25718;DHT22;13574;52.040;5.692;2022-12-07T07:29:17;7.80;99.90
25718;DHT22;13574;52.040;5.692;2022-12-07T07:31:42;7.80;99.90
25718;DHT22;13574;52.040;5.692;2022-12-07T07:34:08;7.80;99.90
25718;DHT22;13574;52.040;5.692;2022-12-07T07:36:34;7.90;99.90
25718;DHT22;13574;52.040;5.692;2022-12-07T07:38:59;7.90;99.90
25718;DHT22;13574;52.040;5.692;2022-12-07T07:41:25;7.90;99.90
25718;DHT22;13574;52.040;5.692;2022-12-07T07:43:51;7.80;99.90
25718;DHT22;13574;52.040;5.692;2022-12-07T07:46:17;7.80;99.90
25718;DHT22;13574;52.040;5.692;2022-12-07T07:48:43;7.80;99.90
25718;DHT22;13574;52.040;5.692;2022-12-07T07:51:09;7.90;99.90
25718;DHT22;13574;52.040;5.692;2022-12-07T07:53:34;7.90;99.90
25718;DHT22;13574;52.040;5.692;2022-12-07T07:56:00;7.80;99.90
25718;DHT22;13574;52.040;5.692;2022-12-07T07:58:25;7.90;99.90
25718;DHT22;13574;52.040;5.692;2022-12-07T08:00:51;7.90;99.90
25718;DHT22;13574;52.040;5.692;2022-12-07T08:03:17;7.90;99.90
25718;DHT22;13574;52.040;5.692;2022-12-07T08:05:43;7.80;99.90
25718;DHT22;13574;52.040;5.692;2022-12-07T08:08:08;7.80;99.90
25718;DHT22;13574;52.040;5.692;2022-12-07T08:10:34;7.90;99.90
25718;DHT22;13574;52.040;5.692;2022-12-07T08:13:01;8.10;99.90
25718;DHT22;13574;52.040;5.692;2022-12-07T08:15:46;8.20;99.90
25718;DHT22;13574;52.040;5.692;2022-12-07T08:18:13;8.20;99.90
25718;DHT22;13574;52.040;5.692;2022-12-07T08:20:40;8.30;99.90
25718;DHT22;13574;52.040;5.692;2022-12-07T08:23:07;8.50;99.90
25718;DHT22;13574;52.040;5.692;2022-12-07T08:25:34;8.60;99.90
25718;DHT22;13574;52.040;5.692;2022-12-07T08:28:00;8.60;99.90
25718;DHT22;13574;52.040;5.692;2022-12-07T08:30:27;8.70;99.90
25718;DHT22;13574;52.040;5.692;2022-12-07T08:32:52;8.70;99.90
25718;DHT22;13574;52.040;5.692;2022-12-07T08:35:18;8.70;99.90
25718;DHT22;13574;52.040;5.692;2022-12-07T08:37:44;8.80;99.90
25718;DHT22;13574;52.040;5.692;2022-12-07T08:40:11;8.70;99.90
25718;DHT22;13574;52.040;5.692;2022-12-07T08:42:44;8.70;99.90
25718;DHT22;13574;52.040;5.692;2022-12-07T08:45:12;8.70;99.90
25718;DHT22;13574;52.040;5.692;2022-12-07T08:47:41;8.70;99.90
25718;DHT22;13574;52.040;5.692;2022-12-07T08:50:10;8.70;99.90
25718;DHT22;13574;52.040;5.692;2022-12-07T08:52:37;8.70;99.90
25718;DHT22;13574;52.040;5.692;2022-12-07T08:55:05;8.80;99.90
25718;DHT22;13574;52.040;5.692;2022-12-07T08:57:33;8.90;99.90
25718;DHT22;13574;52.040;5.692;2022-12-07T08:59:59;9.00;99.90
25718;DHT22;13574;52.040;5.692;2022-12-07T09:02:25;9.00;99.90
25718;DHT22;13574;52.040;5.692;2022-12-07T09:04:51;8.90;99.90
25718;DHT22;13574;52.040;5.692;2022-12-07T09:07:16;9.00;99.90
25718;DHT22;13574;52.040;5.692;2022-12-07T09:09:42;9.10;99.90
25718;DHT22;13574;52.040;5.692;2022-12-07T09:12:08;9.20;99.90
25718;DHT22;13574;52.040;5.692;2022-12-07T09:14:34;9.20;99.90
25718;DHT22;13574;52.040;5.692;2022-12-07T09:17:10;9.20;99.90
25718;DHT22;13574;52.040;5.692;2022-12-07T09:19:36;9.30;99.90
25718;DHT22;13574;52.040;5.692;2022-12-07T09:22:03;9.40;99.90
25718;DHT22;13574;52.040;5.692;2022-12-07T09:24:30;9.40;99.90
25718;DHT22;13574;52.040;5.692;2022-12-07T09:26:56;9.50;99.90
25718;DHT22;13574;52.040;5.692;2022-12-07T09:29:22;9.50;99.90
25718;DHT22;13574;52.040;5.692;2022-12-07T09:31:48;9.40;99.90
25718;DHT22;13574;52.040;5.692;2022-12-07T09:34:16;9.40;99.90
25718;DHT22;13574;52.040;5.692;2022-12-07T09:36:41;9.40;99.90
25718;DHT22;13574;52.040;5.692;2022-12-07T09:39:08;9.30;99.90
25718;DHT22;13574;52.040;5.692;2022-12-07T09:41:40;9.30;99.90
25718;DHT22;13574;52.040;5.692;2022-12-07T09:44:16;9.50;99.90
25718;DHT22;13574;52.040;5.692;2022-12-07T09:46:43;9.50;99.90
25718;DHT22;13574;52.040;5.692;2022-12-07T09:49:31;9.40;99.90
25718;DHT22;13574;52.040;5.692;2022-12-07T09:52:19;9.50;99.90
25718;DHT22;13574;52.040;5.692;2022-12-07T09:54:50;9.50;99.90
25718;DHT22;13574;52.040;5.692;2022-12-07T09:57:16;9.50;99.90
25718;DHT22;13574;52.040;5.692;2022-12-07T09:59:42;9.60;99.90
25718;DHT22;13574;52.040;5.692;2022-12-07T10:02:25;9.70;99.90
25718;DHT22;13574;52.040;5.692;2022-12-07T10:04:53;9.80;99.90
25718;DHT22;13574;52.040;5.692;2022-12-07T10:07:19;9.80;99.90
25718;DHT22;13574;52.040;5.692;2022-12-07T10:09:44;9.90;99.90
25718;DHT22;13574;52.040;5.692;2022-12-07T10:12:11;9.90;99.90
25718;DHT22;13574;52.040;5.692;2022-12-07T10:14:39;9.90;99.90
25718;DHT22;13574;52.040;5.692;2022-12-07T10:20:28;9.80;99.90
25718;DHT22;13574;52.040;5.692;2022-12-07T10:25:30;9.70;99.90
25718;DHT22;13574;52.040;5.692;2022-12-07T10:28:09;9.70;99.90
25718;DHT22;13574;52.040;5.692;2022-12-07T10:33:37;10.00;99.90
25718;DHT22;13574;52.040;5.692;2022-12-07T10:36:33;10.20;99.90
25718;DHT22;13574;52.040;5.692;2022-12-07T10:41:26;10.40;99.90
25718;DHT22;13574;52.040;5.692;2022-12-07T10:43:54;10.40;99.90
25718;DHT22;13574;52.040;5.692;2022-12-07T10:57:40;10.30;99.90
25718;DHT22;13574;52.040;5.692;2022-12-07T11:00:23;9.70;99.90
25718;DHT22;13574;52.040;5.692;2022-12-07T11:03:03;9.80;99.90
25718;DHT22;13574;52.040;5.692;2022-12-07T11:05:45;9.70;99.90
25718;DHT22;13574;52.040;5.692;2022-12-07T11:11:23;9.70;99.90
25718;DHT22;13574;52.040;5.692;2022-12-07T11:13:53;9.60;99.90
25718;DHT22;13574;52.040;5.692;2022-12-07T11:25:23;9.80;99.90
25718;DHT22;13574;52.040;5.692;2022-12-07T11:41:54;10.20;99.90
25718;DHT22;13574;52.040;5.692;2022-12-07T11:44:34;10.10;99.90
25718;DHT22;13574;52.040;5.692;2022-12-07T11:55:19;10.40;99.90
25718;DHT22;13574;52.040;5.692;2022-12-07T11:57:50;10.40;99.90
25718;DHT22;13574;52.040;5.692;2022-12-07T12:00:18;10.50;99.90
25718;DHT22;13574;52.040;5.692;2022-12-07T12:03:22;10.30;99.90
25718;DHT22;13574;52.040;5.692;2022-12-07T12:05:45;10.20;99.90
25718;DHT22;13574;52.040;5.692;2022-12-07T12:08:42;10.20;99.90
25718;DHT22;13574;52.040;5.692;2022-12-07T12:20:06;10.10;99.90
25718;DHT22;13574;52.040;5.692;2022-12-07T12:22:43;10.20;99.90
25718;DHT22;13574;52.040;5.692;2022-12-07T12:25:35;10.30;99.90
25718;DHT22;13574;52.040;5.692;2022-12-07T12:28:01;10.40;99.90
25718;DHT22;13574;52.040;5.692;2022-12-07T12:30:39;10.30;99.90
25718;DHT22;13574;52.040;5.692;2022-12-07T12:33:29;10.20;99.90
25718;DHT22;13574;52.040;5.692;2022-12-07T12:46:54;10.50;99.90
25718;DHT22;13574;52.040;5.692;2022-12-07T12:54:28;10.60;99.90
25718;DHT22;13574;52.040;5.692;2022-12-07T12:57:11;10.50;99.90
25718;DHT22;13574;52.040;5.692;2022-12-07T13:02:33;10.20;99.90
25718;DHT22;13574;52.040;5.692;2022-12-07T13:05:23;10.10;99.90
25718;DHT22;13574;52.040;5.692;2022-12-07T13:07:53;10.10;99.90
25718;DHT22;13574;52.040;5.692;2022-12-07T13:18:37;10.60;99.90
25718;DHT22;13574;52.040;5.692;2022-12-07T13:23:58;10.70;99.90
25718;DHT22;13574;52.040;5.692;2022-12-07T13:29:19;11.00;99.90
25718;DHT22;13574;52.040;5.692;2022-12-07T13:31:52;10.90;99.90
25718;DHT22;13574;52.040;5.692;2022-12-07T13:36:57;10.80;99.90
25718;DHT22;13574;52.040;5.692;2022-12-07T13:39:25;10.90;99.90
25718;DHT22;13574;52.040;5.692;2022-12-07T13:41:54;11.10;99.90
25718;DHT22;13574;52.040;5.692;2022-12-07T13:44:21;11.20;99.90
25718;DHT22;13574;52.040;5.692;2022-12-07T13:49:24;11.00;99.90
25718;DHT22;13574;52.040;5.692;2022-12-07T13:51:51;11.00;99.90
25718;DHT22;13574;52.040;5.692;2022-12-07T13:54:18;10.60;99.90
25718;DHT22;13574;52.040;5.692;2022-12-07T13:56:50;10.10;99.90
25718;DHT22;13574;52.040;5.692;2022-12-07T13:59:26;10.20;99.90
25718;DHT22;13574;52.040;5.692;2022-12-07T14:01:53;10.20;99.90
25718;DHT22;13574;52.040;5.692;2022-12-07T14:04:30;10.10;99.90
25718;DHT22;13574;52.040;5.692;2022-12-07T14:06:55;10.00;99.90
25718;DHT22;13574;52.040;5.692;2022-12-07T14:09:24;10.20;99.90
25718;DHT22;13574;52.040;5.692;2022-12-07T14:11:53;10.10;99.90
25718;DHT22;13574;52.040;5.692;2022-12-07T14:14:30;10.10;99.90
25718;DHT22;13574;52.040;5.692;2022-12-07T14:17:11;10.20;99.90
25718;DHT22;13574;52.040;5.692;2022-12-07T14:22:08;10.20;99.90
25718;DHT22;13574;52.040;5.692;2022-12-07T14:24:44;10.10;99.90
25718;DHT22;13574;52.040;5.692;2022-12-07T14:27:21;10.20;99.90
25718;DHT22;13574;52.040;5.692;2022-12-07T14:29:48;10.30;99.90
25718;DHT22;13574;52.040;5.692;2022-12-07T14:35:02;10.30;99.90
25718;DHT22;13574;52.040;5.692;2022-12-07T14:37:29;10.40;99.90
25718;DHT22;13574;52.040;5.692;2022-12-07T14:39:55;10.50;99.90
25718;DHT22;13574;52.040;5.692;2022-12-07T14:42:23;10.40;99.90
25718;DHT22;13574;52.040;5.692;2022-12-07T14:44:49;10.50;99.90
25718;DHT22;13574;52.040;5.692;2022-12-07T14:47:15;10.50;99.90
25718;DHT22;13574;52.040;5.692;2022-12-07T14:49:41;10.30;99.90
25718;DHT22;13574;52.040;5.692;2022-12-07T14:52:26;10.30;99.90
25718;DHT22;13574;52.040;5.692;2022-12-07T14:54:52;10.40;99.90
25718;DHT22;13574;52.040;5.692;2022-12-07T14:57:18;10.60;99.90
25718;DHT22;13574;52.040;5.692;2022-12-07T14:59:43;10.60;99.90
25718;DHT22;13574;52.040;5.692;2022-12-07T15:02:12;10.60;99.90
25718;DHT22;13574;52.040;5.692;2022-12-07T15:04:38;10.60;99.90
25718;DHT22;13574;52.040;5.692;2022-12-07T15:07:09;10.60;99.90
25718;DHT22;13574;52.040;5.692;2022-12-07T15:09:35;10.60;99.90
25718;DHT22;13574;52.040;5.692;2022-12-07T15:12:01;10.60;99.90
25718;DHT22;13574;52.040;5.692;2022-12-07T15:14:27;10.60;99.90
25718;DHT22;13574;52.040;5.692;2022-12-07T15:16:53;10.60;99.90
25718;DHT22;13574;52.040;5.692;2022-12-07T15:19:21;10.50;99.90
25718;DHT22;13574;52.040;5.692;2022-12-07T15:21:53;10.50;99.90
25718;DHT22;13574;52.040;5.692;2022-12-07T15:24:19;10.50;99.90
25718;DHT22;13574;52.040;5.692;2022-12-07T15:26:45;10.40;99.90
25718;DHT22;13574;52.040;5.692;2022-12-07T15:29:11;10.30;99.90
25718;DHT22;13574;52.040;5.692;2022-12-07T15:31:37;10.40;99.90
25718;DHT22;13574;52.040;5.692;2022-12-07T15:34:03;10.30;99.90
25718;DHT22;13574;52.040;5.692;2022-12-07T15:36:33;10.30;99.90
25718;DHT22;13574;52.040;5.692;2022-12-07T15:38:59;10.30;99.90
25718;DHT22;13574;52.040;5.692;2022-12-07T15:41:25;10.30;99.90
25718;DHT22;13574;52.040;5.692;2022-12-07T15:43:54;10.30;99.90
25718;DHT22;13574;52.040;5.692;2022-12-07T15:46:40;10.30;99.90
25718;DHT22;13574;52.040;5.692;2022-12-07T15:49:13;10.30;99.90
25718;DHT22;13574;52.040;5.692;2022-12-07T15:51:40;10.30;99.90
25718;DHT22;13574;52.040;5.692;2022-12-07T15:54:06;10.20;99.90
25718;DHT22;13574;52.040;5.692;2022-12-07T15:56:32;10.10;99.90
25718;DHT22;13574;52.040;5.692;2022-12-07T15:58:58;9.80;99.90
25718;DHT22;13574;52.040;5.692;2022-12-07T16:01:23;9.60;99.90
25718;DHT22;13574;52.040;5.692;2022-12-07T16:03:49;9.60;99.90
25718;DHT22;13574;52.040;5.692;2022-12-07T16:06:16;9.70;99.90
25718;DHT22;13574;52.040;5.692;2022-12-07T16:08:46;9.70;99.90
25718;DHT22;13574;52.040;5.692;2022-12-07T16:11:12;9.80;99.90
25718;DHT22;13574;52.040;5.692;2022-12-07T16:13:38;9.80;99.90
25718;DHT22;13574;52.040;5.692;2022-12-07T16:16:11;9.80;99.90
25718;DHT22;13574;52.040;5.692;2022-12-07T16:18:37;9.80;99.90
25718;DHT22;13574;52.040;5.692;2022-12-07T16:21:03;9.80;99.90
25718;DHT22;13574;52.040;5.692;2022-12-07T16:23:28;9.80;99.90
25718;DHT22;13574;52.040;5.692;2022-12-07T16:25:54;9.80;99.90
25718;DHT22;13574;52.040;5.692;2022-12-07T16:28:20;9.80;99.90
25718;DHT22;13574;52.040;5.692;2022-12-07T16:30:45;9.90;99.90
25718;DHT22;13574;52.040;5.692;2022-12-07T16:33:12;9.80;99.90
25718;DHT22;13574;52.040;5.692;2022-12-07T16:35:40;9.80;99.90
25718;DHT22;13574;52.040;5.692;2022-12-07T16:38:06;9.70;99.90
25718;DHT22;13574;52.040;5.692;2022-12-07T16:40:32;9.70;99.90
25718;DHT22;13574;52.040;5.692;2022-12-07T16:42:58;9.70;99.90
25718;DHT22;13574;52.040;5.692;2022-12-07T16:45:23;9.70;99.90
25718;DHT22;13574;52.040;5.692;2022-12-07T16:47:49;9.60;99.90
25718;DHT22;13574;52.040;5.692;2022-12-07T16:50:15;9.60;99.90
25718;DHT22;13574;52.040;5.692;2022-12-07T16:52:40;9.60;99.90
25718;DHT22;13574;52.040;5.692;2022-12-07T16:55:06;9.60;99.90
25718;DHT22;13574;52.040;5.692;2022-12-07T16:57:32;9.60;99.90
25718;DHT22;13574;52.040;5.692;2022-12-07T16:59:58;9.60;99.90
25718;DHT22;13574;52.040;5.692;2022-12-07T17:02:23;9.50;99.90
25718;DHT22;13574;52.040;5.692;2022-12-07T17:04:50;9.60;99.90
25718;DHT22;13574;52.040;5.692;2022-12-07T17:07:16;9.50;99.90
25718;DHT22;13574;52.040;5.692;2022-12-07T17:09:41;9.50;99.90
25718;DHT22;13574;52.040;5.692;2022-12-07T17:12:07;9.50;99.90
25718;DHT22;13574;52.040;5.692;2022-12-07T17:14:33;9.40;99.90
25718;DHT22;13574;52.040;5.692;2022-12-07T17:17:16;9.50;99.90
25718;DHT22;13574;52.040;5.692;2022-12-07T17:19:42;9.50;99.90
25718;DHT22;13574;52.040;5.692;2022-12-07T17:22:08;9.50;99.90
25718;DHT22;13574;52.040;5.692;2022-12-07T17:24:36;9.40;99.90
25718;DHT22;13574;52.040;5.692;2022-12-07T17:27:02;9.40;99.90
25718;DHT22;13574;52.040;5.692;2022-12-07T17:29:28;9.40;99.90
25718;DHT22;13574;52.040;5.692;2022-12-07T17:31:53;9.50;99.90
25718;DHT22;13574;52.040;5.692;2022-12-07T17:34:19;9.50;99.90
25718;DHT22;13574;52.040;5.692;2022-12-07T17:36:45;9.40;99.90
25718;DHT22;13574;52.040;5.692;2022-12-07T17:39:15;9.50;99.90
25718;DHT22;13574;52.040;5.692;2022-12-07T17:41:41;9.50;99.90
25718;DHT22;13574;52.040;5.692;2022-12-07T17:44:27;9.50;99.90
25718;DHT22;13574;52.040;5.692;2022-12-07T17:46:53;9.50;99.90
25718;DHT22;13574;52.040;5.692;2022-12-07T17:49:26;9.50;99.90
25718;DHT22;13574;52.040;5.692;2022-12-07T17:51:52;9.50;99.90
25718;DHT22;13574;52.040;5.692;2022-12-07T17:54:36;9.50;99.90
25718;DHT22;13574;52.040;5.692;2022-12-07T17:57:02;9.50;99.90
25718;DHT22;13574;52.040;5.692;2022-12-07T17:59:28;9.50;99.90
25718;DHT22;13574;52.040;5.692;2022-12-07T18:01:53;9.50;99.90
25718;DHT22;13574;52.040;5.692;2022-12-07T18:04:19;9.50;99.90
25718;DHT22;13574;52.040;5.692;2022-12-07T18:06:45;9.50;99.90
25718;DHT22;13574;52.040;5.692;2022-12-07T18:09:10;9.50;99.90
25718;DHT22;13574;52.040;5.692;2022-12-07T18:11:36;9.60;99.90